Tuscola, Michigan
Current Conditions -  °F | °C
As of 2:14 PM on Saturday 25 Oct 2014 (Local Time) from KHYX Reporting Station
Scattered Clouds Scattered Clouds  
Wind Chill: 68°   Ceiling: Unl
Heat Index: 68°   Visibility: 10mi
Dew Point: 43°   Wind: 14mph
Humidity: 40%   Direction: 260°W
Pressure: 29.71"   Gusts: 21mph
Location:  43.33°N, 83.66°W
Report Text: KHYX 251814Z AUTO 26012G18KT 10SM SCT041 SCT050 20/06 A2971 RMK AO2
Loading
Personal Weather Stations






























Interactive Weather Map
Tropical Storm Tracking
New forecast layout! Learn more

10-Day Weather Forecast

Advertisements
Track Severe Weather on mobile